Rize — 9HA2781 — position and weather

sailwx.info

Track history (hours):
 
Tides and Currents Weather Stations Pressure Air Temp Water Temp Dewpoint Dewpoint Depression Visibility Wind Speed Wind Dir Waves Ship Positions

Rize

Last reported at 2014-Nov-29 05:33 UTC. Time now 2014-Nov-29 06:04 UTC.
Position N 51°27' E 003°42'.

Length 229 m; draft 7.2 m.

Type: Cargo ship. MMSI: 215677000.

Date/timePositionNaut miles runAvg speedWind from/ knotsBaromVisibWave heightAir tempDewpointWater temp
2014-Nov-29 05:33N 51°27' E 003°42'0 0.0
2014-Nov-29 04:30N 51°27' E 003°42'0 0.0
2014-Nov-29 03:30N 51°27' E 003°42'0 0.0
2014-Nov-29 02:33N 51°27' E 003°42'0 0.0
2014-Nov-29 01:30N 51°27' E 003°42'0 0.0
2014-Nov-29 00:30N 51°27' E 003°42'0 0.0
2014-Nov-28 23:30N 51°27' E 003°42'0 0.0
2014-Nov-28 22:33N 51°27' E 003°42'0 0.0
2014-Nov-28 21:33N 51°27' E 003°42'0 0.0
2014-Nov-28 20:30N 51°27' E 003°42'0 0.0
2014-Nov-28 19:30N 51°27' E 003°42'0 0.0
2014-Nov-28 18:33N 51°27' E 003°42'0 0.0
2014-Nov-28 17:30N 51°27' E 003°42'0 0.0
2014-Nov-28 16:30N 51°27' E 003°42'0 0.0
2014-Nov-28 15:30N 51°27' E 003°42'0 0.0
2014-Nov-28 14:33N 51°27' E 003°42'0 0.0
2014-Nov-28 13:30N 51°27' E 003°42'0 0.0
2014-Nov-28 12:33N 51°27' E 003°42'0 0.0
2014-Nov-28 11:33N 51°27' E 003°42'0 0.0
2014-Nov-28 10:30N 51°27' E 003°42'0 0.0
2014-Nov-28 09:33N 51°27' E 003°42'0 0.0
2014-Nov-28 08:30N 51°27' E 003°42'0 0.0
2014-Nov-28 07:33N 51°27' E 003°42'0 0.0
2014-Nov-28 06:30N 51°27' E 003°42'0 0.0
2014-Nov-28 05:30N 51°27' E 003°42'0 0.0
2014-Nov-28 04:33N 51°27' E 003°42'0 0.0
2014-Nov-28 03:30N 51°27' E 003°42'0 0.0
2014-Nov-28 02:33N 51°27' E 003°42'0 0.0
2014-Nov-28 01:30N 51°27' E 003°42'0 0.0
2014-Nov-28 00:33N 51°27' E 003°42'0 0.0
2014-Nov-27 23:33N 51°27' E 003°42'0 0.0
2014-Nov-27 22:33N 51°27' E 003°42'0 0.0
2014-Nov-27 21:30N 51°27' E 003°42'0 0.0
2014-Nov-27 20:30N 51°27' E 003°42'0 0.0
2014-Nov-27 19:30N 51°27' E 003°42'0 0.0
2014-Nov-27 18:33N 51°27' E 003°42'0 0.0
2014-Nov-27 17:33N 51°27' E 003°42'0 0.0
2014-Nov-27 16:33N 51°27' E 003°42'0 0.0
2014-Nov-27 15:33N 51°27' E 003°42'0 0.0
2014-Nov-27 14:33N 51°27' E 003°42'0 0.0
2014-Nov-27 13:30N 51°27' E 003°42'0 0.0
2014-Nov-27 12:33N 51°27' E 003°42'0 0.0
2014-Nov-27 11:30N 51°27' E 003°42'0 0.0
2014-Nov-27 10:30N 51°27' E 003°42'0 0.0
2014-Nov-27 09:33N 51°27' E 003°42'0 0.0
2014-Nov-27 08:33N 51°27' E 003°42'0 0.0
2014-Nov-27 07:30N 51°27' E 003°42'0 0.0
2014-Nov-27 06:33N 51°27' E 003°42'1 1.2
2014-Nov-27 05:34N 51°27' E 003°41'3 3.5
2014-Nov-27 04:33N 51°26' E 003°36'5 5.3
2014-Nov-27 03:33N 51°25' E 003°27'8 8.0
2014-Nov-27 02:33N 51°25' E 003°15'10 9.8
2014-Nov-27 01:33N 51°25' E 002°59'10 9.5
2014-Nov-27 00:30N 51°23' E 002°43'10 9.1
2014-Nov-26 23:22N 51°21' E 002°27'910.9
2014-Nov-26 22:33N 51°16' E 002°15'1110.7
2014-Nov-26 21:33N 51°11' E 001°60'1110.6
2014-Nov-26 20:33N 51°06' E 001°45'1110.6
2014-Nov-26 19:33N 50°58' E 001°34'  
Track history (hours):
 
Tides and Currents Weather Stations Pressure Air Temp Water Temp Dewpoint Dewpoint Depression Visibility Wind Speed Wind Dir Waves Ship Positions

Rize

Last reported at 2014-Nov-29 05:33 UTC. Time now 2014-Nov-29 06:04 UTC.
Position N 51°27' E 003°42'.

Length 229 m; draft 7.2 m.

Type: Cargo ship. MMSI: 215677000.

Date/timePositionNaut miles runAvg speedWind from/ knotsBaromVisibWave heightAir tempDewpointWater temp
2014-Nov-29 05:33N 51°27' E 003°42'0 0.0
2014-Nov-29 04:30N 51°27' E 003°42'0 0.0
2014-Nov-29 03:30N 51°27' E 003°42'0 0.0
2014-Nov-29 02:33N 51°27' E 003°42'0 0.0
2014-Nov-29 01:30N 51°27' E 003°42'0 0.0
2014-Nov-29 00:30N 51°27' E 003°42'0 0.0
2014-Nov-28 23:30N 51°27' E 003°42'0 0.0
2014-Nov-28 22:33N 51°27' E 003°42'0 0.0
2014-Nov-28 21:33N 51°27' E 003°42'0 0.0
2014-Nov-28 20:30N 51°27' E 003°42'0 0.0
2014-Nov-28 19:30N 51°27' E 003°42'0 0.0
2014-Nov-28 18:33N 51°27' E 003°42'0 0.0
2014-Nov-28 17:30N 51°27' E 003°42'0 0.0
2014-Nov-28 16:30N 51°27' E 003°42'0 0.0
2014-Nov-28 15:30N 51°27' E 003°42'0 0.0
2014-Nov-28 14:33N 51°27' E 003°42'0 0.0
2014-Nov-28 13:30N 51°27' E 003°42'0 0.0
2014-Nov-28 12:33N 51°27' E 003°42'0 0.0
2014-Nov-28 11:33N 51°27' E 003°42'0 0.0
2014-Nov-28 10:30N 51°27' E 003°42'0 0.0
2014-Nov-28 09:33N 51°27' E 003°42'0 0.0
2014-Nov-28 08:30N 51°27' E 003°42'0 0.0
2014-Nov-28 07:33N 51°27' E 003°42'0 0.0
2014-Nov-28 06:30N 51°27' E 003°42'0 0.0
2014-Nov-28 05:30N 51°27' E 003°42'0 0.0
2014-Nov-28 04:33N 51°27' E 003°42'0 0.0
2014-Nov-28 03:30N 51°27' E 003°42'0 0.0
2014-Nov-28 02:33N 51°27' E 003°42'0 0.0
2014-Nov-28 01:30N 51°27' E 003°42'0 0.0
2014-Nov-28 00:33N 51°27' E 003°42'0 0.0
2014-Nov-27 23:33N 51°27' E 003°42'0 0.0
2014-Nov-27 22:33N 51°27' E 003°42'0 0.0
2014-Nov-27 21:30N 51°27' E 003°42'0 0.0
2014-Nov-27 20:30N 51°27' E 003°42'0 0.0
2014-Nov-27 19:30N 51°27' E 003°42'0 0.0
2014-Nov-27 18:33N 51°27' E 003°42'0 0.0
2014-Nov-27 17:33N 51°27' E 003°42'0 0.0
2014-Nov-27 16:33N 51°27' E 003°42'0 0.0
2014-Nov-27 15:33N 51°27' E 003°42'0 0.0
2014-Nov-27 14:33N 51°27' E 003°42'0 0.0
2014-Nov-27 13:30N 51°27' E 003°42'0 0.0
2014-Nov-27 12:33N 51°27' E 003°42'0 0.0
2014-Nov-27 11:30N 51°27' E 003°42'0 0.0
2014-Nov-27 10:30N 51°27' E 003°42'0 0.0
2014-Nov-27 09:33N 51°27' E 003°42'0 0.0
2014-Nov-27 08:33N 51°27' E 003°42'0 0.0
2014-Nov-27 07:30N 51°27' E 003°42'0 0.0
2014-Nov-27 06:33N 51°27' E 003°42'1 1.2
2014-Nov-27 05:34N 51°27' E 003°41'3 3.5
2014-Nov-27 04:33N 51°26' E 003°36'5 5.3
2014-Nov-27 03:33N 51°25' E 003°27'8 8.0
2014-Nov-27 02:33N 51°25' E 003°15'10 9.8
2014-Nov-27 01:33N 51°25' E 002°59'10 9.5
2014-Nov-27 00:30N 51°23' E 002°43'10 9.1
2014-Nov-26 23:22N 51°21' E 002°27'910.9
2014-Nov-26 22:33N 51°16' E 002°15'1110.7
2014-Nov-26 21:33N 51°11' E 001°60'1110.6
2014-Nov-26 20:33N 51°06' E 001°45'1110.6
2014-Nov-26 19:33N 50°58' E 001°34'  

Dump ship's entire track history